Time;durP1;ratioP1;P1;durP2;ratioP2;P2;SDS_P1;SDS_P2;PMS_P1;PMS_P2;Temp;Humidity;BMP_temperature;BMP_pressure;BME280_temperature;BME280_humidity;BME280_pressure;Samples;Min_cycle;Max_cycle;Signal;HPM_P1;HPM_P2
2022/08/29 00:00:05;;;;;;;;;;;;;;;;;;4988812;28;19922;-58
2022/08/29 00:02:30;;;;;;;;;;;;;;;;;;4991735;28;19929;-58
2022/08/29 00:04:56;;;;;;;;;;;;;;;;;;4990750;28;19921;-58
2022/08/29 00:07:24;;;;;;;;;;;;;;;;;;4989109;28;19918;-58
2022/08/29 00:09:49;;;;;;;;;;;;;;;;;;4989877;28;20860;-57
2022/08/29 00:12:15;;;;;;;;;;;;;;;;;;4987755;28;20016;-57
2022/08/29 00:14:43;;;;;;;;;;;;;;;;;;4991498;28;19926;-57
2022/08/29 00:17:09;;;;;;;;;;;;;;;;;;4989363;28;20454;-57
2022/08/29 00:19:34;;;;;;;;;;;;;;;;;;4989167;28;20830;-57
2022/08/29 00:22:02;;;;;;;;;;;;;;;;;;4990389;28;20024;-58
2022/08/29 00:24:29;;;;;;;;;;;;;;;;;;4989397;28;19921;-58
2022/08/29 00:26:55;;;;;;;;;;;;;;;;;;4990918;28;19968;-58
2022/08/29 00:29:20;;;;;;;;;;;;;;;;;;4987587;28;20377;-58
2022/08/29 00:31:45;;;;;;;;;;;;;;;;;;4987388;28;19976;-58
2022/08/29 00:34:13;;;;;;;;;;;;;;;;;;4990987;28;19932;-58
2022/08/29 00:36:41;;;;;;;;;;;;;;;;;;4989988;28;20003;-58
2022/08/29 00:39:06;;;;;;;;;;;;;;;;;;4990229;28;19964;-59
2022/08/29 00:41:32;;;;;;;;;;;;;;;;;;5008753;28;20009;-57
2022/08/29 00:44:00;;;;;;;;;;;;;;;;;;4990581;28;20384;-58
2022/08/29 00:46:26;;;;;;;;;;;;;;;;;;4993502;28;19932;-57
2022/08/29 00:48:52;;;;;;;;;;;;;;;;;;5008855;28;20663;-58
2022/08/29 00:51:17;;;;;;;;;;;;;;;;;;4990481;28;19981;-58
2022/08/29 00:53:45;;;;;;;;;;;;;;;;;;5010925;28;19917;-58
2022/08/29 00:56:13;;;;;;;;;;;;;;;;;;4992649;28;19921;-58
2022/08/29 00:58:43;;;;;;;;;;;;;;;;;;4993760;28;19921;-57
2022/08/29 01:01:09;;;;;;;;;;;;;;;;;;5009497;28;19995;-58
2022/08/29 01:03:34;;;;;;;;;;;;;;;;;;4993308;28;20420;-58
2022/08/29 01:05:59;;;;;;;;;;;;;;;;;;4991189;28;19956;-57
2022/08/29 01:08:27;;;;;;;;;;;;;;;;;;4993349;28;19931;-58
2022/08/29 01:13:36;;;;;;;;;;;;;;;;;;5008857;28;19921;-58
2022/08/29 01:16:05;;;;;;;;;;;;;;;;;;4981623;28;19928;-58
2022/08/29 01:18:31;;;;;;;;;;;;;;;;;;4982588;28;19960;-58
2022/08/29 01:20:56;;;;;;;;;;;;;;;;;;4990384;28;19935;-58
2022/08/29 01:23:23;;;;;;;;;;;;;;;;;;4991171;28;19921;-58
2022/08/29 01:25:49;;;;;;;;;;;;;;;;;;5008419;28;20007;-57
2022/08/29 01:28:17;;;;;;;;;;;;;;;;;;5006301;28;19994;-58
2022/08/29 01:30:42;;;;;;;;;;;;;;;;;;5009429;28;19920;-58
2022/08/29 01:33:08;;;;;;;;;;;;;;;;;;4993175;28;19983;-58
2022/08/29 01:35:35;;;;;;;;;;;;;;;;;;4991411;28;19925;-58
2022/08/29 01:38:01;;;;;;;;;;;;;;;;;;5008632;28;19968;-58
2022/08/29 01:40:27;;;;;;;;;;;;;;;;;;4992399;28;19933;-60
2022/08/29 01:42:53;;;;;;;;;;;;;;;;;;4993693;28;19928;-57
2022/08/29 01:45:18;;;;;;;;;;;;;;;;;;5008821;28;20025;-58
2022/08/29 01:47:46;;;;;;;;;;;;;;;;;;4981436;28;20902;-58
2022/08/29 01:50:14;;;;;;;;;;;;;;;;;;5008298;28;20377;-58
2022/08/29 01:52:39;;;;;;;;;;;;;;;;;;5006447;28;19967;-58
2022/08/29 01:55:05;;;;;;;;;;;;;;;;;;5007932;28;19920;-58
2022/08/29 01:57:33;;;;;;;;;;;;;;;;;;5008208;28;20900;-58
2022/08/29 01:59:58;;;;;;;;;;;;;;;;;;5008069;28;19931;-58
2022/08/29 02:02:24;;;;;;;;;;;;;;;;;;5008108;28;19945;-58
2022/08/29 02:04:49;;;;;;;;;;;;;;;;;;5006361;28;20048;-58
2022/08/29 02:07:18;;;;;;;;;;;;;;;;;;4990734;28;19921;-58
2022/08/29 02:09:43;;;;;;;;;;;;;;;;;;5009088;28;20061;-58
2022/08/29 02:12:11;;;;;;;;;;;;;;;;;;5006487;28;20376;-58
2022/08/29 02:14:36;;;;;;;;;;;;;;;;;;5003507;28;19921;-58
2022/08/29 02:17:02;;;;;;;;;;;;;;;;;;5007147;28;19920;-58
2022/08/29 02:19:32;;;;;;;;;;;;;;;;;;5008647;28;19916;-58
2022/08/29 02:22:03;;;;;;;;;;;;;;;;;;5006850;28;19921;-58
2022/08/29 02:24:28;;;;;;;;;;;;;;;;;;4990341;28;19921;-60
2022/08/29 02:26:54;;;;;;;;;;;;;;;;;;4989834;28;19952;-59
2022/08/29 02:29:19;;;;;;;;;;;;;;;;;;4993293;28;20002;-59
2022/08/29 02:31:49;;;;;;;;;;;;;;;;;;4986812;28;19949;-58
2022/08/29 02:34:17;;;;;;;;;;;;;;;;;;4975049;28;19940;-60
2022/08/29 02:36:42;;;;;;;;;;;;;;;;;;4988430;28;19917;-59
2022/08/29 02:39:10;;;;;;;;;;;;;;;;;;4989750;28;19937;-59
2022/08/29 02:41:35;;;;;;;;;;;;;;;;;;5008352;28;19936;-59
2022/08/29 02:44:01;;;;;;;;;;;;;;;;;;5007716;28;19921;-59
2022/08/29 02:46:28;;;;;;;;;;;;;;;;;;4971847;28;19932;-59
2022/08/29 02:48:53;;;;;;;;;;;;;;;;;;4988095;28;19925;-59
2022/08/29 02:51:19;;;;;;;;;;;;;;;;;;4989480;28;20870;-59
2022/08/29 02:53:46;;;;;;;;;;;;;;;;;;4992607;28;19917;-59
2022/08/29 02:56:15;;;;;;;;;;;;;;;;;;5005642;28;19921;-59
2022/08/29 02:58:40;;;;;;;;;;;;;;;;;;4989782;28;19966;-59
2022/08/29 03:01:08;;;;;;;;;;;;;;;;;;5007382;28;19921;-58
2022/08/29 03:03:34;;;;;;;;;;;;;;;;;;4989413;28;19932;-59
2022/08/29 03:06:02;;;;;;;;;;;;;;;;;;5004801;28;19924;-59
2022/08/29 03:08:28;;;;;;;;;;;;;;;;;;5006031;28;19921;-58
2022/08/29 03:10:53;;;;;;;;;;;;;;;;;;5007882;28;20019;-58
2022/08/29 03:13:19;;;;;;;;;;;;;;;;;;5007195;28;20399;-59
2022/08/29 03:15:46;;;;;;;;;;;;;;;;;;4973888;28;19920;-58
2022/08/29 03:18:13;;;;;;;;;;;;;;;;;;4973119;28;20779;-58
2022/08/29 03:20:40;;;;;;;;;;;;;;;;;;5004915;28;19927;-59
2022/08/29 03:23:10;;;;;;;;;;;;;;;;;;4997077;28;19921;-59
2022/08/29 03:25:38;;;;;;;;;;;;;;;;;;4990041;28;19921;-59
2022/08/29 03:28:03;;;;;;;;;;;;;;;;;;4988374;28;19928;-60
2022/08/29 03:30:29;;;;;;;;;;;;;;;;;;4991442;28;20027;-59
2022/08/29 03:32:55;;;;;;;;;;;;;;;;;;5007100;28;19921;-59
2022/08/29 03:35:21;;;;;;;;;;;;;;;;;;4988256;28;19959;-59
2022/08/29 03:37:46;;;;;;;;;;;;;;;;;;4972916;28;19928;-59
2022/08/29 03:40:12;;;;;;;;;;;;;;;;;;5008348;28;19925;-59
2022/08/29 03:42:41;;;;;;;;;;;;;;;;;;4987500;28;19925;-59
2022/08/29 03:45:09;;;;;;;;;;;;;;;;;;5005665;28;19921;-59
2022/08/29 03:47:37;;;;;;;;;;;;;;;;;;5005980;28;19998;-59
2022/08/29 03:50:02;;;;;;;;;;;;;;;;;;4996138;28;19928;-59
2022/08/29 03:52:28;;;;;;;;;;;;;;;;;;4971139;28;20854;-59
2022/08/29 03:54:53;;;;;;;;;;;;;;;;;;4989703;28;19924;-59
2022/08/29 03:57:19;;;;;;;;;;;;;;;;;;4972657;28;20434;-59
2022/08/29 03:59:47;;;;;;;;;;;;;;;;;;4972660;28;19921;-59
2022/08/29 04:02:17;;;;;;;;;;;;;;;;;;4988652;28;20595;-59
2022/08/29 04:07:27;;;;;;;;;;;;;;;;;;5006630;28;19967;-59
2022/08/29 04:09:54;;;;;;;;;;;;;;;;;;5006471;28;20011;-59
2022/08/29 04:12:20;;;;;;;;;;;;;;;;;;5005693;28;19921;-59
2022/08/29 04:14:48;;;;;;;;;;;;;;;;;;4989752;28;19925;-59
2022/08/29 04:17:13;;;;;;;;;;;;;;;;;;5009805;28;20016;-59
2022/08/29 04:19:41;;;;;;;;;;;;;;;;;;4992985;28;20684;-59
2022/08/29 04:22:06;;;;;;;;;;;;;;;;;;4976376;28;19967;-59
2022/08/29 04:24:32;;;;;;;;;;;;;;;;;;5010040;28;20095;-59
2022/08/29 04:27:00;;;;;;;;;;;;;;;;;;4992516;28;19964;-58
2022/08/29 04:29:26;;;;;;;;;;;;;;;;;;4977025;28;21011;-58
2022/08/29 04:35:08;;;;;;;;;;;;;;;;;;5009749;28;20031;-59
2022/08/29 04:37:33;;;;;;;;;;;;;;;;;;4991716;28;20388;-59
2022/08/29 04:39:59;;;;;;;;;;;;;;;;;;5014004;28;19976;-59
2022/08/29 04:42:25;;;;;;;;;;;;;;;;;;4994496;28;19921;-59
2022/08/29 04:44:53;;;;;;;;;;;;;;;;;;4993973;28;19928;-58
2022/08/29 04:47:21;;;;;;;;;;;;;;;;;;4989982;28;19917;-59
2022/08/29 04:49:48;;;;;;;;;;;;;;;;;;4995417;28;19925;-58
2022/08/29 04:52:13;;;;;;;;;;;;;;;;;;5012387;28;19921;-58
2022/08/29 04:54:39;;;;;;;;;;;;;;;;;;5012671;28;19948;-58
2022/08/29 04:57:04;;;;;;;;;;;;;;;;;;5011339;28;19967;-58
2022/08/29 05:02:48;;;;;;;;;;;;;;;;;;5013376;28;20805;-59
2022/08/29 05:05:16;;;;;;;;;;;;;;;;;;4992772;28;19925;-59
2022/08/29 05:07:41;;;;;;;;;;;;;;;;;;5010065;28;19988;-59
2022/08/29 05:10:08;;;;;;;;;;;;;;;;;;5012899;28;19917;-59
2022/08/29 05:12:36;;;;;;;;;;;;;;;;;;4991346;28;20004;-59
2022/08/29 05:15:04;;;;;;;;;;;;;;;;;;5006927;28;20194;-59
2022/08/29 05:17:29;;;;;;;;;;;;;;;;;;4991385;28;20068;-59
2022/08/29 05:19:54;;;;;;;;;;;;;;;;;;4990201;28;19921;-59
2022/08/29 05:22:22;;;;;;;;;;;;;;;;;;4991355;28;20437;-59
2022/08/29 05:24:50;;;;;;;;;;;;;;;;;;4988684;28;20019;-59
2022/08/29 05:27:15;;;;;;;;;;;;;;;;;;5007805;28;20055;-59
2022/08/29 05:29:41;;;;;;;;;;;;;;;;;;4992603;28;19971;-59
2022/08/29 05:37:48;;;;;;;;;;;;;;;;;;5011894;28;20494;-59
2022/08/29 05:40:13;;;;;;;;;;;;;;;;;;5012325;28;19933;-59
2022/08/29 05:42:39;;;;;;;;;;;;;;;;;;5011126;28;19959;-59
2022/08/29 05:45:06;;;;;;;;;;;;;;;;;;4991920;28;20035;-59
2022/08/29 05:47:35;;;;;;;;;;;;;;;;;;5011788;28;19956;-59
2022/08/29 05:50:00;;;;;;;;;;;;;;;;;;5008098;28;19921;-59
2022/08/29 05:52:26;;;;;;;;;;;;;;;;;;5008320;28;19967;-59
2022/08/29 05:54:52;;;;;;;;;;;;;;;;;;5009358;28;20114;-59
2022/08/29 05:57:38;;;;;;;;;;;;;;;;;;5007912;28;21829;-59
2022/08/29 06:00:05;;;;;;;;;;;;;;;;;;5009099;28;19917;-59
2022/08/29 06:02:32;;;;;;;;;;;;;;;;;;5007171;28;19963;-59
2022/08/29 06:05:00;;;;;;;;;;;;;;;;;;5008650;28;20003;-59
2022/08/29 06:07:47;;;;;;;;;;;;;;;;;;4995578;28;19932;-60
2022/08/29 06:10:12;;;;;;;;;;;;;;;;;;4974265;28;19921;-59
2022/08/29 06:12:37;;;;;;;;;;;;;;;;;;4990615;28;19920;-59
2022/08/29 06:15:05;;;;;;;;;;;;;;;;;;5006106;28;20815;-59
2022/08/29 06:17:31;;;;;;;;;;;;;;;;;;4990158;28;19927;-59
2022/08/29 06:19:56;;;;;;;;;;;;;;;;;;5006329;28;19925;-59
2022/08/29 06:22:24;;;;;;;;;;;;;;;;;;4989561;28;19979;-60
2022/08/29 06:24:49;;;;;;;;;;;;;;;;;;4993066;28;19917;-59
2022/08/29 06:27:14;;;;;;;;;;;;;;;;;;4981808;28;19921;-59
2022/08/29 06:29:39;;;;;;;;;;;;;;;;;;4994355;28;19917;-59
2022/08/29 06:32:05;;;;;;;;;;;;;;;;;;5010853;28;19925;-59
2022/08/29 06:34:40;;;;;;;;;;;;;;;;;;4990477;28;19925;-59
2022/08/29 06:37:05;;;;;;;;;;;;;;;;;;4979951;28;19921;-59
2022/08/29 06:39:30;;;;;;;;;;;;;;;;;;4988836;28;20344;-59
2022/08/29 06:41:58;;;;;;;;;;;;;;;;;;4991202;28;20518;-59
2022/08/29 06:44:42;;;;;;;;;;;;;;;;;;4989017;28;19921;-59
2022/08/29 06:47:07;;;;;;;;;;;;;;;;;;4992815;28;19992;-59
2022/08/29 06:49:35;;;;;;;;;;;;;;;;;;4979140;28;19921;-59
2022/08/29 06:52:01;;;;;;;;;;;;;;;;;;4989005;28;20439;-59
2022/08/29 06:54:27;;;;;;;;;;;;;;;;;;4992725;28;19925;-59
2022/08/29 06:56:54;;;;;;;;;;;;;;;;;;4988679;28;19922;-59
2022/08/29 07:02:33;;;;;;;;;;;;;;;;;;4990013;28;19929;-58
2022/08/29 07:05:01;;;;;;;;;;;;;;;;;;4971750;28;19944;-60
2022/08/29 07:07:26;;;;;;;;;;;;;;;;;;4984723;28;19975;-59
2022/08/29 07:09:54;;;;;;;;;;;;;;;;;;4986532;28;21674;-60
2022/08/29 07:12:27;;;;;;;;;;;;;;;;;;4987447;28;19985;-62
2022/08/29 07:14:55;;;;;;;;;;;;;;;;;;4986841;28;20651;-59
2022/08/29 07:20:38;;;;;;;;;;;;;;;;;;4985692;28;19928;-60
2022/08/29 07:23:05;;;;;;;;;;;;;;;;;;4988241;28;19995;-61
2022/08/29 07:25:39;;;;;;;;;;;;;;;;;;4987856;28;19917;-59
2022/08/29 07:28:05;;;;;;;;;;;;;;;;;;4987774;28;19925;-58
2022/08/29 07:30:30;;;;;;;;;;;;;;;;;;4986986;28;19979;-59
2022/08/29 07:32:55;;;;;;;;;;;;;;;;;;4985336;28;20823;-59
2022/08/29 07:35:24;;;;;;;;;;;;;;;;;;4985917;28;19984;-59
2022/08/29 07:37:51;;;;;;;;;;;;;;;;;;4988823;28;19921;-59
2022/08/29 07:40:16;;;;;;;;;;;;;;;;;;4987419;28;19937;-58
2022/08/29 07:42:44;;;;;;;;;;;;;;;;;;4988107;28;19922;-59
2022/08/29 07:48:26;;;;;;;;;;;;;;;;;;4987035;28;20002;-59
2022/08/29 07:51:06;;;;;;;;;;;;;;;;;;4989380;28;19984;-59
2022/08/29 07:53:50;;;;;;;;;;;;;;;;;;4973885;28;19921;-59
2022/08/29 07:56:15;;;;;;;;;;;;;;;;;;4968909;28;20392;-60
2022/08/29 07:58:40;;;;;;;;;;;;;;;;;;4989238;28;19921;-60
2022/08/29 08:01:08;;;;;;;;;;;;;;;;;;5005269;28;23346;-60
2022/08/29 08:03:36;;;;;;;;;;;;;;;;;;4973926;28;19990;-59
2022/08/29 08:06:04;;;;;;;;;;;;;;;;;;4988292;28;20013;-59
2022/08/29 08:11:46;;;;;;;;;;;;;;;;;;4988320;28;19967;-61
2022/08/29 08:14:12;;;;;;;;;;;;;;;;;;4991905;28;19961;-60
2022/08/29 08:16:38;;;;;;;;;;;;;;;;;;4989571;28;20745;-61
2022/08/29 08:19:03;;;;;;;;;;;;;;;;;;4988755;28;20343;-61
2022/08/29 08:21:30;;;;;;;;;;;;;;;;;;4988529;28;19926;-60
2022/08/29 08:23:56;;;;;;;;;;;;;;;;;;4990564;28;19921;-60
2022/08/29 08:26:24;;;;;;;;;;;;;;;;;;4988469;28;19921;-59
2022/08/29 08:28:49;;;;;;;;;;;;;;;;;;4989396;28;20003;-59
2022/08/29 08:31:17;;;;;;;;;;;;;;;;;;4990096;28;19933;-60
2022/08/29 08:33:47;;;;;;;;;;;;;;;;;;4988656;28;19917;-60
2022/08/29 08:39:28;;;;;;;;;;;;;;;;;;4994254;28;19995;-60
2022/08/29 08:41:56;;;;;;;;;;;;;;;;;;4991573;28;20644;-60
2022/08/29 08:47:08;;;;;;;;;;;;;;;;;;5009128;28;19916;-60
2022/08/29 08:49:49;;;;;;;;;;;;;;;;;;4991000;28;19932;-60
2022/08/29 08:52:14;;;;;;;;;;;;;;;;;;5008131;28;19929;-59
2022/08/29 08:54:58;;;;;;;;;;;;;;;;;;5009501;28;19925;-60
2022/08/29 08:57:39;;;;;;;;;;;;;;;;;;5008991;28;19921;-60
2022/08/29 09:00:09;;;;;;;;;;;;;;;;;;4990853;28;19917;-60
2022/08/29 09:02:34;;;;;;;;;;;;;;;;;;5006648;28;19921;-62
2022/08/29 09:05:00;;;;;;;;;;;;;;;;;;5010031;28;19928;-62
2022/08/29 09:07:25;;;;;;;;;;;;;;;;;;5009316;28;20404;-62
2022/08/29 09:09:50;;;;;;;;;;;;;;;;;;5009303;28;19921;-61
2022/08/29 09:12:16;;;;;;;;;;;;;;;;;;4990497;28;19925;-61
2022/08/29 09:14:43;;;;;;;;;;;;;;;;;;4990223;28;19929;-61
2022/08/29 09:17:14;;;;;;;;;;;;;;;;;;5010027;28;19953;-60
2022/08/29 09:19:42;;;;;;;;;;;;;;;;;;4990200;28;19921;-60
2022/08/29 09:22:10;;;;;;;;;;;;;;;;;;4990154;28;19917;-61
2022/08/29 09:24:35;;;;;;;;;;;;;;;;;;5009705;28;20299;-61
2022/08/29 09:27:00;;;;;;;;;;;;;;;;;;5009556;28;19924;-61
2022/08/29 09:29:26;;;;;;;;;;;;;;;;;;4990565;28;19921;-60
2022/08/29 09:31:51;;;;;;;;;;;;;;;;;;5011478;28;19967;-60
2022/08/29 09:34:17;;;;;;;;;;;;;;;;;;5008338;28;19921;-60
2022/08/29 09:36:43;;;;;;;;;;;;;;;;;;4991232;28;19921;-61
2022/08/29 09:39:11;;;;;;;;;;;;;;;;;;4993271;28;19917;-62
2022/08/29 09:41:36;;;;;;;;;;;;;;;;;;4990180;28;19990;-61
2022/08/29 09:44:04;;;;;;;;;;;;;;;;;;5009379;28;19927;-61
2022/08/29 09:46:31;;;;;;;;;;;;;;;;;;5008264;28;19921;-61
2022/08/29 09:48:56;;;;;;;;;;;;;;;;;;5008383;28;20009;-61
2022/08/29 09:51:24;;;;;;;;;;;;;;;;;;4987662;28;19932;-61
2022/08/29 09:53:52;;;;;;;;;;;;;;;;;;4992842;28;19931;-60
2022/08/29 09:56:32;;;;;;;;;;;;;;;;;;4992249;28;20490;-61
2022/08/29 09:59:00;;;;;;;;;;;;;;;;;;5010200;28;19971;-60
2022/08/29 10:01:26;;;;;;;;;;;;;;;;;;5011629;28;19921;-60
2022/08/29 10:03:51;;;;;;;;;;;;;;;;;;5010075;28;19921;-62
2022/08/29 10:09:33;;;;;;;;;;;;;;;;;;5011983;28;19932;-61
2022/08/29 10:11:59;;;;;;;;;;;;;;;;;;4994116;28;19924;-62
2022/08/29 10:14:29;;;;;;;;;;;;;;;;;;4992870;28;19925;-63
2022/08/29 10:23:30;;;;;;;;;;;;;;;;;;5009667;28;21924;-62
2022/08/29 10:25:56;;;;;;;;;;;;;;;;;;4988918;28;19921;-65
2022/08/29 10:28:21;;;;;;;;;;;;;;;;;;4990147;28;20038;-61
2022/08/29 10:30:50;;;;;;;;;;;;;;;;;;5009621;28;19920;-61
2022/08/29 10:33:18;;;;;;;;;;;;;;;;;;4991296;28;19927;-62
2022/08/29 10:39:00;;;;;;;;;;;;;;;;;;5007786;28;20011;-62
2022/08/29 10:41:29;;;;;;;;;;;;;;;;;;5007990;28;19950;-62
2022/08/29 10:43:57;;;;;;;;;;;;;;;;;;4990850;28;19916;-61
2022/08/29 10:46:22;;;;;;;;;;;;;;;;;;5007752;28;20820;-61
2022/08/29 10:48:54;;;;;;;;;;;;;;;;;;5009002;28;19921;-61
2022/08/29 10:51:19;;;;;;;;;;;;;;;;;;5009131;28;20632;-62
2022/08/29 10:53:45;;;;;;;;;;;;;;;;;;4989277;28;19928;-61
2022/08/29 10:56:14;;;;;;;;;;;;;;;;;;5009207;28;19933;-61
2022/08/29 10:58:40;;;;;;;;;;;;;;;;;;5009311;28;19917;-60
2022/08/29 11:04:21;;;;;;;;;;;;;;;;;;5008207;28;19928;-60
2022/08/29 11:06:47;;;;;;;;;;;;;;;;;;4972207;28;19951;-64
2022/08/29 11:09:14;;;;;;;;;;;;;;;;;;5009902;28;19921;-61
2022/08/29 11:11:39;;;;;;;;;;;;;;;;;;5008496;28;19924;-61
2022/08/29 11:14:23;;;;;;;;;;;;;;;;;;4991119;28;19925;-61
2022/08/29 11:16:48;;;;;;;;;;;;;;;;;;5009154;28;19921;-59
2022/08/29 11:19:13;;;;;;;;;;;;;;;;;;4987751;28;19921;-60
2022/08/29 11:21:41;;;;;;;;;;;;;;;;;;4991876;28;20664;-60
2022/08/29 11:24:25;;;;;;;;;;;;;;;;;;5009647;28;19928;-60
2022/08/29 11:26:51;;;;;;;;;;;;;;;;;;4994636;28;20913;-60
2022/08/29 11:29:25;;;;;;;;;;;;;;;;;;5012574;28;19983;-61
2022/08/29 11:35:13;;;;;;;;;;;;;;;;;;5012036;28;19963;-61
2022/08/29 11:37:38;;;;;;;;;;;;;;;;;;4992759;28;20334;-60
2022/08/29 11:43:19;;;;;;;;;;;;;;;;;;5003946;28;19931;-61
2022/08/29 11:45:47;;;;;;;;;;;;;;;;;;5010976;28;19960;-64
2022/08/29 11:48:12;;;;;;;;;;;;;;;;;;4994370;28;19972;-61
2022/08/29 11:50:38;;;;;;;;;;;;;;;;;;4981946;28;19946;-63
2022/08/29 11:53:03;;;;;;;;;;;;;;;;;;5013864;28;20035;-63
2022/08/29 11:55:31;;;;;;;;;;;;;;;;;;4994082;28;20006;-63
2022/08/29 11:57:56;;;;;;;;;;;;;;;;;;4993619;28;19921;-62
2022/08/29 12:00:29;;;;;;;;;;;;;;;;;;4995364;28;20814;-61
2022/08/29 12:02:54;;;;;;;;;;;;;;;;;;5011278;28;20046;-60
2022/08/29 12:05:20;;;;;;;;;;;;;;;;;;4991196;28;19928;-60
2022/08/29 12:07:48;;;;;;;;;;;;;;;;;;4992821;28;19921;-60
2022/08/29 12:10:13;;;;;;;;;;;;;;;;;;4987712;28;19928;-62
2022/08/29 12:12:47;;;;;;;;;;;;;;;;;;5008313;28;19917;-62
2022/08/29 12:21:26;;;;;;;;;;;;;;;;;;5013268;28;19924;-61
2022/08/29 12:23:56;;;;;;;;;;;;;;;;;;5013990;28;21707;-60
2022/08/29 12:26:21;;;;;;;;;;;;;;;;;;4997354;28;20364;-62
2022/08/29 12:29:02;;;;;;;;;;;;;;;;;;5013456;28;19932;-61
2022/08/29 12:31:30;;;;;;;;;;;;;;;;;;4978500;28;20396;-62
2022/08/29 12:33:57;;;;;;;;;;;;;;;;;;4995582;28;19963;-61
2022/08/29 12:36:25;;;;;;;;;;;;;;;;;;4969518;28;19928;-62
2022/08/29 12:38:52;;;;;;;;;;;;;;;;;;4992617;28;19921;-63
2022/08/29 12:41:19;;;;;;;;;;;;;;;;;;5011265;28;19928;-62
2022/08/29 12:43:47;;;;;;;;;;;;;;;;;;5014180;28;19930;-62
2022/08/29 12:46:14;;;;;;;;;;;;;;;;;;5013118;28;19928;-61
2022/08/29 12:48:42;;;;;;;;;;;;;;;;;;5013465;28;20027;-61
2022/08/29 12:51:08;;;;;;;;;;;;;;;;;;4993863;28;19927;-61
2022/08/29 12:53:33;;;;;;;;;;;;;;;;;;4975663;28;19921;-62
2022/08/29 12:55:59;;;;;;;;;;;;;;;;;;4976709;28;19971;-62
2022/08/29 12:58:24;;;;;;;;;;;;;;;;;;5011130;28;19956;-63
2022/08/29 13:00:52;;;;;;;;;;;;;;;;;;5007827;28;19917;-62
2022/08/29 13:06:34;;;;;;;;;;;;;;;;;;5009361;28;20001;-63
2022/08/29 13:12:15;;;;;;;;;;;;;;;;;;5011033;28;20013;-62
2022/08/29 13:15:02;;;;;;;;;;;;;;;;;;4992024;28;20354;-62
2022/08/29 13:17:27;;;;;;;;;;;;;;;;;;4974807;28;19921;-61
2022/08/29 13:19:55;;;;;;;;;;;;;;;;;;5008447;28;20482;-61
2022/08/29 13:22:21;;;;;;;;;;;;;;;;;;5008535;28;19924;-60
2022/08/29 13:24:51;;;;;;;;;;;;;;;;;;5008995;28;20536;-61
2022/08/29 13:27:40;;;;;;;;;;;;;;;;;;4991422;28;20012;-62
2022/08/29 13:30:07;;;;;;;;;;;;;;;;;;5010333;28;19920;-62
2022/08/29 13:32:35;;;;;;;;;;;;;;;;;;4988598;28;19943;-60
2022/08/29 13:35:00;;;;;;;;;;;;;;;;;;4992690;28;19925;-62
2022/08/29 13:37:28;;;;;;;;;;;;;;;;;;4989961;28;20017;-60
2022/08/29 13:39:53;;;;;;;;;;;;;;;;;;4976626;28;19925;-61
2022/08/29 13:42:30;;;;;;;;;;;;;;;;;;5008532;28;19991;-59
2022/08/29 13:44:55;;;;;;;;;;;;;;;;;;4949549;28;20412;-60
2022/08/29 13:47:23;;;;;;;;;;;;;;;;;;4972670;28;19933;-60
2022/08/29 13:53:04;;;;;;;;;;;;;;;;;;4970680;28;19928;-61
2022/08/29 13:55:40;;;;;;;;;;;;;;;;;;4971774;28;19932;-61
2022/08/29 13:58:05;;;;;;;;;;;;;;;;;;4967923;28;19925;-61
2022/08/29 14:00:32;;;;;;;;;;;;;;;;;;4971637;28;19928;-60
2022/08/29 14:02:58;;;;;;;;;;;;;;;;;;4972334;28;19932;-59
2022/08/29 14:05:23;;;;;;;;;;;;;;;;;;4967209;28;20578;-60
2022/08/29 14:07:48;;;;;;;;;;;;;;;;;;4968324;28;21166;-62
2022/08/29 14:10:14;;;;;;;;;;;;;;;;;;4969826;28;19937;-59
2022/08/29 14:12:39;;;;;;;;;;;;;;;;;;4958227;28;19922;-59
2022/08/29 14:15:05;;;;;;;;;;;;;;;;;;4969162;28;21804;-61
2022/08/29 14:17:31;;;;;;;;;;;;;;;;;;4970419;28;19937;-63
2022/08/29 14:19:56;;;;;;;;;;;;;;;;;;4968353;28;20292;-61
2022/08/29 14:25:40;;;;;;;;;;;;;;;;;;4968074;28;20002;-59
2022/08/29 14:28:06;;;;;;;;;;;;;;;;;;4969798;28;19922;-59
2022/08/29 14:30:31;;;;;;;;;;;;;;;;;;4967994;28;20395;-61
2022/08/29 14:32:57;;;;;;;;;;;;;;;;;;4968075;28;19931;-62
2022/08/29 14:35:23;;;;;;;;;;;;;;;;;;4968949;28;19925;-61
2022/08/29 14:41:07;;;;;;;;;;;;;;;;;;4970319;28;20057;-61
2022/08/29 14:43:33;;;;;;;;;;;;;;;;;;4988293;28;19928;-61
2022/08/29 14:46:19;;;;;;;;;;;;;;;;;;4992691;28;20436;-61
2022/08/29 14:48:44;;;;;;;;;;;;;;;;;;4992210;28;20266;-60
2022/08/29 14:51:10;;;;;;;;;;;;;;;;;;4994368;28;19932;-61
2022/08/29 14:53:36;;;;;;;;;;;;;;;;;;5011480;28;19921;-62
2022/08/29 14:56:01;;;;;;;;;;;;;;;;;;5009642;28;19932;-62
2022/08/29 14:58:27;;;;;;;;;;;;;;;;;;5009536;28;19917;-61
2022/08/29 15:00:52;;;;;;;;;;;;;;;;;;4991864;28;19917;-62
2022/08/29 15:03:18;;;;;;;;;;;;;;;;;;4994662;28;19928;-61
2022/08/29 15:05:46;;;;;;;;;;;;;;;;;;5009280;28;19975;-61
2022/08/29 15:08:14;;;;;;;;;;;;;;;;;;4990208;28;20002;-61
2022/08/29 15:10:39;;;;;;;;;;;;;;;;;;4973239;28;20706;-60
2022/08/29 15:13:07;;;;;;;;;;;;;;;;;;4974599;28;19925;-62
2022/08/29 15:15:33;;;;;;;;;;;;;;;;;;4989174;28;19947;-61
2022/08/29 15:17:58;;;;;;;;;;;;;;;;;;5007698;28;20033;-61
2022/08/29 15:20:29;;;;;;;;;;;;;;;;;;4989957;28;19956;-60
2022/08/29 15:23:04;;;;;;;;;;;;;;;;;;5008581;28;20040;-59
2022/08/29 15:25:29;;;;;;;;;;;;;;;;;;5007367;28;19925;-62
2022/08/29 15:27:55;;;;;;;;;;;;;;;;;;5009046;28;19979;-61
2022/08/29 15:30:20;;;;;;;;;;;;;;;;;;5007797;28;19967;-60
2022/08/29 15:33:04;;;;;;;;;;;;;;;;;;4997830;28;20566;-60
2022/08/29 15:38:48;;;;;;;;;;;;;;;;;;5006724;28;20389;-60
2022/08/29 15:44:02;;;;;;;;;;;;;;;;;;5000038;28;20861;-60
2022/08/29 15:46:28;;;;;;;;;;;;;;;;;;5006293;28;19995;-60
2022/08/29 15:48:55;;;;;;;;;;;;;;;;;;4974929;28;20412;-61
2022/08/29 15:51:20;;;;;;;;;;;;;;;;;;4986565;28;19933;-60
2022/08/29 15:53:46;;;;;;;;;;;;;;;;;;5010446;28;19948;-60
2022/08/29 15:56:11;;;;;;;;;;;;;;;;;;4974604;28;19928;-60
2022/08/29 15:58:37;;;;;;;;;;;;;;;;;;4974687;28;19925;-60
2022/08/29 16:01:04;;;;;;;;;;;;;;;;;;5009319;28;20789;-59
2022/08/29 16:03:32;;;;;;;;;;;;;;;;;;4990680;28;19929;-59
2022/08/29 16:05:58;;;;;;;;;;;;;;;;;;5006081;28;20023;-60
2022/08/29 16:08:24;;;;;;;;;;;;;;;;;;4972056;28;19970;-60
2022/08/29 16:10:49;;;;;;;;;;;;;;;;;;5009896;28;19991;-60
2022/08/29 16:13:15;;;;;;;;;;;;;;;;;;5011140;28;19945;-62
2022/08/29 16:15:40;;;;;;;;;;;;;;;;;;4994292;28;19925;-61
2022/08/29 16:18:06;;;;;;;;;;;;;;;;;;4984235;28;19921;-59
2022/08/29 16:20:31;;;;;;;;;;;;;;;;;;4991880;28;19965;-60
2022/08/29 16:25:47;;;;;;;;;;;;;;;;;;5010820;28;19921;-60
2022/08/29 16:28:15;;;;;;;;;;;;;;;;;;4994321;28;19937;-61
2022/08/29 16:30:40;;;;;;;;;;;;;;;;;;5012371;28;20004;-60
2022/08/29 16:33:27;;;;;;;;;;;;;;;;;;5010424;28;19923;-60
2022/08/29 16:35:57;;;;;;;;;;;;;;;;;;4977708;28;20467;-60
2022/08/29 16:38:22;;;;;;;;;;;;;;;;;;4992650;28;19925;-60
2022/08/29 16:40:50;;;;;;;;;;;;;;;;;;4993912;28;20051;-59
2022/08/29 16:43:16;;;;;;;;;;;;;;;;;;5010761;28;19927;-60
2022/08/29 16:45:41;;;;;;;;;;;;;;;;;;5011689;28;19968;-61
2022/08/29 16:48:06;;;;;;;;;;;;;;;;;;5012300;28;19967;-60
2022/08/29 16:53:57;;;;;;;;;;;;;;;;;;5012451;28;19963;-60
2022/08/29 16:56:22;;;;;;;;;;;;;;;;;;5009721;28;20399;-60
2022/08/29 16:59:03;;;;;;;;;;;;;;;;;;4994504;28;19924;-60
2022/08/29 17:01:29;;;;;;;;;;;;;;;;;;5011830;28;19917;-59
2022/08/29 17:03:57;;;;;;;;;;;;;;;;;;4992286;28;19925;-60
2022/08/29 17:16:35;;;;;;;;;;;;;;;;;;4991078;28;20010;-58
2022/08/29 17:19:01;;;;;;;;;;;;;;;;;;5010295;28;19952;-59
2022/08/29 17:21:30;;;;;;;;;;;;;;;;;;5008241;28;19925;-59
2022/08/29 17:23:58;;;;;;;;;;;;;;;;;;5008929;28;19990;-59
2022/08/29 17:32:29;;;;;;;;;;;;;;;;;;5009150;28;19921;-59
2022/08/29 17:38:11;;;;;;;;;;;;;;;;;;5009107;28;19932;-59
2022/08/29 17:40:36;;;;;;;;;;;;;;;;;;4992426;28;19925;-60
2022/08/29 17:43:01;;;;;;;;;;;;;;;;;;5010426;28;19925;-60
2022/08/29 17:45:27;;;;;;;;;;;;;;;;;;5008901;28;19983;-60
2022/08/29 17:51:11;;;;;;;;;;;;;;;;;;5010971;28;19975;-59
2022/08/29 17:53:41;;;;;;;;;;;;;;;;;;5010824;28;19917;-60
2022/08/29 17:56:09;;;;;;;;;;;;;;;;;;4990030;28;20024;-59
2022/08/29 17:58:34;;;;;;;;;;;;;;;;;;4991301;28;19935;-59
2022/08/29 18:01:02;;;;;;;;;;;;;;;;;;4996665;28;19916;-59
2022/08/29 18:03:30;;;;;;;;;;;;;;;;;;4978844;28;19928;-59
2022/08/29 18:05:56;;;;;;;;;;;;;;;;;;5008645;28;19979;-59
2022/08/29 18:11:25;;;;;;;;;;;;;;;;;;5009798;28;20387;-59
2022/08/29 18:13:54;;;;;;;;;;;;;;;;;;5009670;28;19921;-59
2022/08/29 18:16:20;;;;;;;;;;;;;;;;;;5010062;28;19925;-59
2022/08/29 18:18:46;;;;;;;;;;;;;;;;;;4989401;28;20501;-60
2022/08/29 18:21:11;;;;;;;;;;;;;;;;;;4990690;28;19921;-59
2022/08/29 18:23:39;;;;;;;;;;;;;;;;;;5009804;28;19917;-60
2022/08/29 18:26:05;;;;;;;;;;;;;;;;;;5009569;28;20015;-59
2022/08/29 18:28:31;;;;;;;;;;;;;;;;;;5010039;28;20554;-59
2022/08/29 18:31:11;;;;;;;;;;;;;;;;;;5007317;28;20881;-59
2022/08/29 18:36:58;;;;;;;;;;;;;;;;;;5008700;28;20016;-59
2022/08/29 18:39:28;;;;;;;;;;;;;;;;;;4991598;28;19917;-60
2022/08/29 18:41:59;;;;;;;;;;;;;;;;;;4991451;28;20587;-60
2022/08/29 18:44:25;;;;;;;;;;;;;;;;;;5009073;28;19933;-60
2022/08/29 18:46:50;;;;;;;;;;;;;;;;;;5006841;28;21786;-59
2022/08/29 18:52:16;;;;;;;;;;;;;;;;;;4921986;28;19957;-59